sensor_id;sensor_type;location;lat;lon;timestamp;P1;durP1;ratioP1;P2;durP2;ratioP2
5521;SDS011;2783;48.730;8.006;2022-09-29T00:00:31;19.77;;;11.30;;
5521;SDS011;2783;48.730;8.006;2022-09-29T00:02:57;17.38;;;10.25;;
5521;SDS011;2783;48.730;8.006;2022-09-29T00:05:22;10.85;;;5.95;;
5521;SDS011;2783;48.730;8.006;2022-09-29T00:07:48;8.07;;;4.85;;
5521;SDS011;2783;48.730;8.006;2022-09-29T00:10:13;10.50;;;4.65;;
5521;SDS011;2783;48.730;8.006;2022-09-29T00:12:39;6.65;;;4.55;;
5521;SDS011;2783;48.730;8.006;2022-09-29T00:15:04;7.43;;;4.30;;
5521;SDS011;2783;48.730;8.006;2022-09-29T00:17:31;9.73;;;4.05;;
5521;SDS011;2783;48.730;8.006;2022-09-29T00:19:56;8.48;;;4.30;;
5521;SDS011;2783;48.730;8.006;2022-09-29T00:22:21;10.20;;;4.45;;
5521;SDS011;2783;48.730;8.006;2022-09-29T00:24:47;8.85;;;4.70;;
5521;SDS011;2783;48.730;8.006;2022-09-29T00:27:13;27.73;;;14.25;;
5521;SDS011;2783;48.730;8.006;2022-09-29T00:29:39;22.50;;;12.75;;
5521;SDS011;2783;48.730;8.006;2022-09-29T00:32:04;23.25;;;12.65;;
5521;SDS011;2783;48.730;8.006;2022-09-29T00:34:30;18.88;;;11.05;;
5521;SDS011;2783;48.730;8.006;2022-09-29T00:36:55;15.63;;;10.23;;
5521;SDS011;2783;48.730;8.006;2022-09-29T00:39:21;11.45;;;7.68;;
5521;SDS011;2783;48.730;8.006;2022-09-29T00:41:46;10.10;;;5.13;;
5521;SDS011;2783;48.730;8.006;2022-09-29T00:51:45;7.95;;;4.43;;
5521;SDS011;2783;48.730;8.006;2022-09-29T00:54:17;9.40;;;5.22;;
5521;SDS011;2783;48.730;8.006;2022-09-29T00:56:42;7.65;;;4.20;;
5521;SDS011;2783;48.730;8.006;2022-09-29T00:59:11;8.90;;;4.68;;
5521;SDS011;2783;48.730;8.006;2022-09-29T01:01:42;7.55;;;4.82;;
5521;SDS011;2783;48.730;8.006;2022-09-29T01:04:08;8.43;;;4.05;;
5521;SDS011;2783;48.730;8.006;2022-09-29T01:06:39;10.57;;;4.35;;
5521;SDS011;2783;48.730;8.006;2022-09-29T01:09:09;8.52;;;4.63;;
5521;SDS011;2783;48.730;8.006;2022-09-29T01:11:38;8.27;;;4.25;;
5521;SDS011;2783;48.730;8.006;2022-09-29T01:14:05;9.55;;;4.95;;
5521;SDS011;2783;48.730;8.006;2022-09-29T01:16:33;7.07;;;3.60;;
5521;SDS011;2783;48.730;8.006;2022-09-29T01:19:00;7.22;;;3.97;;
5521;SDS011;2783;48.730;8.006;2022-09-29T01:21:47;8.93;;;3.72;;
5521;SDS011;2783;48.730;8.006;2022-09-29T01:36:29;5.00;;;3.30;;
5521;SDS011;2783;48.730;8.006;2022-09-29T01:39:18;11.25;;;3.88;;
5521;SDS011;2783;48.730;8.006;2022-09-29T01:41:56;4.95;;;3.17;;
5521;SDS011;2783;48.730;8.006;2022-09-29T01:44:35;7.03;;;3.03;;
5521;SDS011;2783;48.730;8.006;2022-09-29T01:47:12;6.03;;;3.33;;
5521;SDS011;2783;48.730;8.006;2022-09-29T01:49:42;7.32;;;3.88;;
5521;SDS011;2783;48.730;8.006;2022-09-29T01:52:16;6.40;;;3.80;;
5521;SDS011;2783;48.730;8.006;2022-09-29T02:00:11;6.47;;;3.40;;
5521;SDS011;2783;48.730;8.006;2022-09-29T02:05:18;4.70;;;3.05;;
5521;SDS011;2783;48.730;8.006;2022-09-29T02:07:49;5.30;;;2.90;;
5521;SDS011;2783;48.730;8.006;2022-09-29T02:10:16;5.07;;;2.95;;
5521;SDS011;2783;48.730;8.006;2022-09-29T02:12:49;4.90;;;2.97;;
5521;SDS011;2783;48.730;8.006;2022-09-29T02:15:18;5.85;;;2.80;;
5521;SDS011;2783;48.730;8.006;2022-09-29T02:17:50;8.20;;;3.65;;
5521;SDS011;2783;48.730;8.006;2022-09-29T02:20:17;7.07;;;3.25;;
5521;SDS011;2783;48.730;8.006;2022-09-29T02:22:43;6.25;;;2.80;;
5521;SDS011;2783;48.730;8.006;2022-09-29T02:25:09;5.80;;;3.15;;
5521;SDS011;2783;48.730;8.006;2022-09-29T02:27:37;4.90;;;2.90;;
5521;SDS011;2783;48.730;8.006;2022-09-29T02:30:03;9.30;;;3.78;;
5521;SDS011;2783;48.730;8.006;2022-09-29T02:32:30;5.43;;;3.30;;
5521;SDS011;2783;48.730;8.006;2022-09-29T02:34:58;6.35;;;3.28;;
5521;SDS011;2783;48.730;8.006;2022-09-29T02:51:00;4.05;;;2.83;;
5521;SDS011;2783;48.730;8.006;2022-09-29T02:58:49;6.05;;;2.88;;
5521;SDS011;2783;48.730;8.006;2022-09-29T03:01:21;5.25;;;2.90;;
5521;SDS011;2783;48.730;8.006;2022-09-29T03:03:47;7.32;;;3.20;;
5521;SDS011;2783;48.730;8.006;2022-09-29T03:06:13;6.15;;;2.97;;
5521;SDS011;2783;48.730;8.006;2022-09-29T03:08:39;4.03;;;2.63;;
5521;SDS011;2783;48.730;8.006;2022-09-29T03:11:05;5.03;;;3.33;;
5521;SDS011;2783;48.730;8.006;2022-09-29T03:13:30;5.32;;;3.15;;
5521;SDS011;2783;48.730;8.006;2022-09-29T03:15:55;4.85;;;2.80;;
5521;SDS011;2783;48.730;8.006;2022-09-29T03:18:21;6.22;;;2.88;;
5521;SDS011;2783;48.730;8.006;2022-09-29T03:20:48;5.75;;;3.22;;
5521;SDS011;2783;48.730;8.006;2022-09-29T03:23:13;7.15;;;2.83;;
5521;SDS011;2783;48.730;8.006;2022-09-29T03:25:38;7.50;;;2.97;;
5521;SDS011;2783;48.730;8.006;2022-09-29T03:28:05;4.63;;;2.85;;
5521;SDS011;2783;48.730;8.006;2022-09-29T03:30:30;6.13;;;2.63;;
5521;SDS011;2783;48.730;8.006;2022-09-29T03:32:55;5.80;;;2.60;;
5521;SDS011;2783;48.730;8.006;2022-09-29T03:35:21;16.83;;;3.88;;
5521;SDS011;2783;48.730;8.006;2022-09-29T03:37:46;7.15;;;3.38;;
5521;SDS011;2783;48.730;8.006;2022-09-29T03:40:12;17.23;;;3.50;;
5521;SDS011;2783;48.730;8.006;2022-09-29T03:42:37;11.27;;;3.65;;
5521;SDS011;2783;48.730;8.006;2022-09-29T03:45:03;5.68;;;3.50;;
5521;SDS011;2783;48.730;8.006;2022-09-29T03:47:29;6.95;;;3.05;;
5521;SDS011;2783;48.730;8.006;2022-09-29T03:49:54;7.13;;;4.10;;
5521;SDS011;2783;48.730;8.006;2022-09-29T03:52:20;8.73;;;3.38;;
5521;SDS011;2783;48.730;8.006;2022-09-29T03:54:45;5.85;;;3.67;;
5521;SDS011;2783;48.730;8.006;2022-09-29T03:57:10;6.47;;;3.63;;
5521;SDS011;2783;48.730;8.006;2022-09-29T03:59:37;9.93;;;4.00;;
5521;SDS011;2783;48.730;8.006;2022-09-29T04:02:02;9.48;;;4.15;;
5521;SDS011;2783;48.730;8.006;2022-09-29T04:04:28;8.32;;;4.03;;
5521;SDS011;2783;48.730;8.006;2022-09-29T04:06:53;7.43;;;3.97;;
5521;SDS011;2783;48.730;8.006;2022-09-29T04:09:19;9.55;;;3.88;;
5521;SDS011;2783;48.730;8.006;2022-09-29T04:11:44;7.38;;;3.70;;
5521;SDS011;2783;48.730;8.006;2022-09-29T04:14:10;7.32;;;3.88;;
5521;SDS011;2783;48.730;8.006;2022-09-29T04:16:35;10.27;;;4.50;;
5521;SDS011;2783;48.730;8.006;2022-09-29T04:19:01;9.27;;;3.75;;
5521;SDS011;2783;48.730;8.006;2022-09-29T04:21:26;6.63;;;3.20;;
5521;SDS011;2783;48.730;8.006;2022-09-29T04:23:52;8.90;;;4.03;;
5521;SDS011;2783;48.730;8.006;2022-09-29T04:26:17;5.30;;;3.55;;
5521;SDS011;2783;48.730;8.006;2022-09-29T04:28:44;8.85;;;3.38;;
5521;SDS011;2783;48.730;8.006;2022-09-29T04:31:10;6.43;;;3.25;;
5521;SDS011;2783;48.730;8.006;2022-09-29T04:33:36;6.28;;;3.70;;
5521;SDS011;2783;48.730;8.006;2022-09-29T04:36:03;8.43;;;4.05;;
5521;SDS011;2783;48.730;8.006;2022-09-29T04:38:29;7.22;;;3.95;;
5521;SDS011;2783;48.730;8.006;2022-09-29T04:40:55;9.23;;;4.18;;
5521;SDS011;2783;48.730;8.006;2022-09-29T04:43:20;7.30;;;4.10;;
5521;SDS011;2783;48.730;8.006;2022-09-29T04:45:46;8.73;;;4.55;;
5521;SDS011;2783;48.730;8.006;2022-09-29T04:48:11;9.60;;;4.03;;
5521;SDS011;2783;48.730;8.006;2022-09-29T04:50:37;10.60;;;4.00;;
5521;SDS011;2783;48.730;8.006;2022-09-29T04:53:02;10.50;;;4.07;;
5521;SDS011;2783;48.730;8.006;2022-09-29T04:55:28;5.93;;;3.80;;
5521;SDS011;2783;48.730;8.006;2022-09-29T04:57:53;8.30;;;4.03;;
5521;SDS011;2783;48.730;8.006;2022-09-29T05:00:19;9.38;;;3.90;;
5521;SDS011;2783;48.730;8.006;2022-09-29T05:02:45;6.60;;;4.10;;
5521;SDS011;2783;48.730;8.006;2022-09-29T05:05:11;6.90;;;4.07;;
5521;SDS011;2783;48.730;8.006;2022-09-29T05:07:37;6.93;;;3.85;;
5521;SDS011;2783;48.730;8.006;2022-09-29T05:10:07;6.35;;;4.25;;
5521;SDS011;2783;48.730;8.006;2022-09-29T05:12:33;9.85;;;5.15;;
5521;SDS011;2783;48.730;8.006;2022-09-29T05:14:58;8.80;;;5.10;;
5521;SDS011;2783;48.730;8.006;2022-09-29T05:17:24;15.52;;;5.60;;
5521;SDS011;2783;48.730;8.006;2022-09-29T05:19:49;9.35;;;5.25;;
5521;SDS011;2783;48.730;8.006;2022-09-29T05:22:15;11.07;;;6.07;;
5521;SDS011;2783;48.730;8.006;2022-09-29T05:24:40;10.00;;;5.88;;
5521;SDS011;2783;48.730;8.006;2022-09-29T05:27:06;7.30;;;4.13;;
5521;SDS011;2783;48.730;8.006;2022-09-29T05:29:31;6.45;;;3.75;;
5521;SDS011;2783;48.730;8.006;2022-09-29T05:31:56;5.45;;;3.38;;
5521;SDS011;2783;48.730;8.006;2022-09-29T05:34:22;6.05;;;3.88;;
5521;SDS011;2783;48.730;8.006;2022-09-29T05:36:47;7.35;;;3.35;;
5521;SDS011;2783;48.730;8.006;2022-09-29T05:39:13;6.60;;;3.70;;
5521;SDS011;2783;48.730;8.006;2022-09-29T05:41:38;7.85;;;4.18;;
5521;SDS011;2783;48.730;8.006;2022-09-29T05:44:04;5.97;;;3.33;;
5521;SDS011;2783;48.730;8.006;2022-09-29T05:46:29;5.68;;;3.22;;
5521;SDS011;2783;48.730;8.006;2022-09-29T05:48:55;7.47;;;3.97;;
5521;SDS011;2783;48.730;8.006;2022-09-29T05:51:22;6.00;;;3.80;;
5521;SDS011;2783;48.730;8.006;2022-09-29T05:53:49;7.50;;;4.30;;
5521;SDS011;2783;48.730;8.006;2022-09-29T05:56:16;7.85;;;4.50;;
5521;SDS011;2783;48.730;8.006;2022-09-29T05:58:43;8.30;;;4.20;;
5521;SDS011;2783;48.730;8.006;2022-09-29T06:01:13;13.98;;;4.47;;
5521;SDS011;2783;48.730;8.006;2022-09-29T06:03:40;9.60;;;3.58;;
5521;SDS011;2783;48.730;8.006;2022-09-29T06:06:13;6.65;;;3.08;;
5521;SDS011;2783;48.730;8.006;2022-09-29T06:08:40;6.75;;;3.90;;
5521;SDS011;2783;48.730;8.006;2022-09-29T06:11:10;7.60;;;3.03;;
5521;SDS011;2783;48.730;8.006;2022-09-29T06:13:41;6.47;;;3.88;;
5521;SDS011;2783;48.730;8.006;2022-09-29T06:16:09;6.90;;;4.07;;
5521;SDS011;2783;48.730;8.006;2022-09-29T06:18:35;5.63;;;3.55;;
5521;SDS011;2783;48.730;8.006;2022-09-29T06:21:02;5.68;;;3.38;;
5521;SDS011;2783;48.730;8.006;2022-09-29T06:23:32;9.40;;;4.00;;
5521;SDS011;2783;48.730;8.006;2022-09-29T06:25:58;8.10;;;4.47;;
5521;SDS011;2783;48.730;8.006;2022-09-29T06:28:26;6.07;;;3.78;;
5521;SDS011;2783;48.730;8.006;2022-09-29T06:30:58;6.88;;;4.53;;
5521;SDS011;2783;48.730;8.006;2022-09-29T06:33:29;6.10;;;3.55;;
5521;SDS011;2783;48.730;8.006;2022-09-29T06:35:56;5.93;;;3.63;;
5521;SDS011;2783;48.730;8.006;2022-09-29T06:38:40;7.05;;;3.58;;
5521;SDS011;2783;48.730;8.006;2022-09-29T06:41:06;5.93;;;3.72;;
5521;SDS011;2783;48.730;8.006;2022-09-29T06:43:32;8.57;;;4.10;;
5521;SDS011;2783;48.730;8.006;2022-09-29T06:45:58;7.05;;;4.00;;
5521;SDS011;2783;48.730;8.006;2022-09-29T06:48:23;6.50;;;3.90;;
5521;SDS011;2783;48.730;8.006;2022-09-29T06:50:49;6.57;;;4.22;;
5521;SDS011;2783;48.730;8.006;2022-09-29T06:53:15;6.35;;;4.20;;
5521;SDS011;2783;48.730;8.006;2022-09-29T06:55:40;7.40;;;3.78;;
5521;SDS011;2783;48.730;8.006;2022-09-29T06:58:06;7.20;;;4.35;;
5521;SDS011;2783;48.730;8.006;2022-09-29T07:00:32;9.98;;;4.15;;
5521;SDS011;2783;48.730;8.006;2022-09-29T07:02:58;6.65;;;4.20;;
5521;SDS011;2783;48.730;8.006;2022-09-29T07:05:24;6.75;;;3.95;;
5521;SDS011;2783;48.730;8.006;2022-09-29T07:07:50;8.35;;;4.18;;
5521;SDS011;2783;48.730;8.006;2022-09-29T07:10:15;11.15;;;6.70;;
5521;SDS011;2783;48.730;8.006;2022-09-29T07:12:40;11.38;;;6.75;;
5521;SDS011;2783;48.730;8.006;2022-09-29T07:15:11;9.82;;;6.72;;
5521;SDS011;2783;48.730;8.006;2022-09-29T07:17:37;12.55;;;6.50;;
5521;SDS011;2783;48.730;8.006;2022-09-29T07:20:02;15.38;;;7.45;;
5521;SDS011;2783;48.730;8.006;2022-09-29T07:22:28;10.35;;;6.47;;
5521;SDS011;2783;48.730;8.006;2022-09-29T07:24:53;13.63;;;6.78;;
5521;SDS011;2783;48.730;8.006;2022-09-29T07:27:19;13.95;;;7.20;;
5521;SDS011;2783;48.730;8.006;2022-09-29T07:29:48;14.30;;;8.80;;
5521;SDS011;2783;48.730;8.006;2022-09-29T07:32:16;13.48;;;7.07;;
5521;SDS011;2783;48.730;8.006;2022-09-29T07:34:43;12.88;;;7.05;;
5521;SDS011;2783;48.730;8.006;2022-09-29T07:37:08;12.43;;;7.45;;
5521;SDS011;2783;48.730;8.006;2022-09-29T07:39:34;15.60;;;8.10;;
5521;SDS011;2783;48.730;8.006;2022-09-29T07:41:59;26.90;;;9.65;;
5521;SDS011;2783;48.730;8.006;2022-09-29T07:44:25;14.82;;;8.88;;
5521;SDS011;2783;48.730;8.006;2022-09-29T07:46:50;12.52;;;7.68;;
5521;SDS011;2783;48.730;8.006;2022-09-29T07:49:16;11.93;;;6.90;;
5521;SDS011;2783;48.730;8.006;2022-09-29T07:51:42;12.57;;;7.53;;
5521;SDS011;2783;48.730;8.006;2022-09-29T07:54:08;9.95;;;6.60;;
5521;SDS011;2783;48.730;8.006;2022-09-29T07:56:33;10.43;;;6.55;;
5521;SDS011;2783;48.730;8.006;2022-09-29T07:58:59;10.02;;;5.57;;
5521;SDS011;2783;48.730;8.006;2022-09-29T08:01:26;8.68;;;5.60;;
5521;SDS011;2783;48.730;8.006;2022-09-29T08:03:54;12.80;;;6.07;;
5521;SDS011;2783;48.730;8.006;2022-09-29T08:06:21;9.40;;;5.03;;
5521;SDS011;2783;48.730;8.006;2022-09-29T08:08:48;9.38;;;5.65;;
5521;SDS011;2783;48.730;8.006;2022-09-29T08:11:15;9.45;;;4.30;;
5521;SDS011;2783;48.730;8.006;2022-09-29T08:13:44;6.30;;;3.83;;
5521;SDS011;2783;48.730;8.006;2022-09-29T08:16:11;7.28;;;3.92;;
5521;SDS011;2783;48.730;8.006;2022-09-29T08:18:38;6.50;;;3.58;;
5521;SDS011;2783;48.730;8.006;2022-09-29T08:21:05;6.20;;;3.75;;
5521;SDS011;2783;48.730;8.006;2022-09-29T08:23:40;7.07;;;4.30;;
5521;SDS011;2783;48.730;8.006;2022-09-29T08:26:08;5.95;;;3.50;;
5521;SDS011;2783;48.730;8.006;2022-09-29T08:28:36;7.85;;;4.20;;
5521;SDS011;2783;48.730;8.006;2022-09-29T08:31:07;6.88;;;4.40;;
5521;SDS011;2783;48.730;8.006;2022-09-29T08:33:34;7.35;;;3.33;;
5521;SDS011;2783;48.730;8.006;2022-09-29T08:36:00;6.28;;;3.42;;
5521;SDS011;2783;48.730;8.006;2022-09-29T08:38:29;9.88;;;3.83;;
5521;SDS011;2783;48.730;8.006;2022-09-29T08:40:56;4.65;;;2.45;;
5521;SDS011;2783;48.730;8.006;2022-09-29T08:43:27;6.80;;;2.72;;
5521;SDS011;2783;48.730;8.006;2022-09-29T08:45:59;10.70;;;3.10;;
5521;SDS011;2783;48.730;8.006;2022-09-29T08:48:37;4.38;;;1.75;;
5521;SDS011;2783;48.730;8.006;2022-09-29T08:54:13;5.50;;;2.10;;
5521;SDS011;2783;48.730;8.006;2022-09-29T08:56:46;4.65;;;2.83;;
5521;SDS011;2783;48.730;8.006;2022-09-29T08:59:12;5.55;;;2.20;;
5521;SDS011;2783;48.730;8.006;2022-09-29T09:01:47;7.10;;;2.63;;
5521;SDS011;2783;48.730;8.006;2022-09-29T09:04:32;5.05;;;1.83;;
5521;SDS011;2783;48.730;8.006;2022-09-29T09:10:48;3.75;;;2.42;;
5521;SDS011;2783;48.730;8.006;2022-09-29T09:15:30;4.82;;;1.92;;
5521;SDS011;2783;48.730;8.006;2022-09-29T09:20:52;6.22;;;2.33;;
5521;SDS011;2783;48.730;8.006;2022-09-29T09:23:38;5.85;;;2.20;;
5521;SDS011;2783;48.730;8.006;2022-09-29T09:26:10;3.25;;;1.88;;
5521;SDS011;2783;48.730;8.006;2022-09-29T09:28:42;6.15;;;1.85;;
5521;SDS011;2783;48.730;8.006;2022-09-29T09:31:27;4.22;;;1.80;;
5521;SDS011;2783;48.730;8.006;2022-09-29T09:33:59;6.40;;;1.90;;
5521;SDS011;2783;48.730;8.006;2022-09-29T09:36:34;4.85;;;1.80;;
5521;SDS011;2783;48.730;8.006;2022-09-29T09:39:15;3.50;;;1.80;;
5521;SDS011;2783;48.730;8.006;2022-09-29T09:41:46;3.58;;;1.52;;
5521;SDS011;2783;48.730;8.006;2022-09-29T09:44:16;3.78;;;1.58;;
5521;SDS011;2783;48.730;8.006;2022-09-29T09:46:54;3.00;;;1.55;;
5521;SDS011;2783;48.730;8.006;2022-09-29T09:49:36;4.22;;;1.42;;
5521;SDS011;2783;48.730;8.006;2022-09-29T09:52:17;2.45;;;1.45;;
5521;SDS011;2783;48.730;8.006;2022-09-29T10:00:20;5.53;;;2.50;;
5521;SDS011;2783;48.730;8.006;2022-09-29T10:02:50;5.10;;;1.70;;
5521;SDS011;2783;48.730;8.006;2022-09-29T10:05:19;3.65;;;2.00;;
5521;SDS011;2783;48.730;8.006;2022-09-29T10:07:53;4.70;;;1.83;;
5521;SDS011;2783;48.730;8.006;2022-09-29T10:10:20;4.25;;;1.83;;
5521;SDS011;2783;48.730;8.006;2022-09-29T10:12:50;2.80;;;1.45;;
5521;SDS011;2783;48.730;8.006;2022-09-29T10:18:29;4.85;;;1.65;;
5521;SDS011;2783;48.730;8.006;2022-09-29T10:21:01;4.13;;;1.70;;
5521;SDS011;2783;48.730;8.006;2022-09-29T10:26:08;3.47;;;1.20;;
5521;SDS011;2783;48.730;8.006;2022-09-29T10:31:56;1.98;;;0.98;;
5521;SDS011;2783;48.730;8.006;2022-09-29T10:34:46;1.70;;;1.00;;
5521;SDS011;2783;48.730;8.006;2022-09-29T10:37:21;2.55;;;1.08;;
5521;SDS011;2783;48.730;8.006;2022-09-29T10:39:49;2.25;;;1.20;;
5521;SDS011;2783;48.730;8.006;2022-09-29T10:42:22;4.38;;;1.25;;
5521;SDS011;2783;48.730;8.006;2022-09-29T10:44:50;3.90;;;2.20;;
5521;SDS011;2783;48.730;8.006;2022-09-29T10:47:35;6.00;;;3.00;;
5521;SDS011;2783;48.730;8.006;2022-09-29T10:50:11;2.65;;;1.17;;
5521;SDS011;2783;48.730;8.006;2022-09-29T10:55:28;2.35;;;1.40;;
5521;SDS011;2783;48.730;8.006;2022-09-29T11:01:08;6.13;;;3.55;;
5521;SDS011;2783;48.730;8.006;2022-09-29T11:03:37;3.40;;;1.60;;
5521;SDS011;2783;48.730;8.006;2022-09-29T11:06:14;1.90;;;1.00;;
5521;SDS011;2783;48.730;8.006;2022-09-29T11:08:57;3.80;;;1.30;;
5521;SDS011;2783;48.730;8.006;2022-09-29T11:13:54;2.35;;;0.93;;
5521;SDS011;2783;48.730;8.006;2022-09-29T11:16:25;1.05;;;0.70;;
5521;SDS011;2783;48.730;8.006;2022-09-29T11:29:44;1.25;;;0.93;;
5521;SDS011;2783;48.730;8.006;2022-09-29T11:32:31;2.65;;;1.05;;
5521;SDS011;2783;48.730;8.006;2022-09-29T11:35:24;1.50;;;1.00;;
5521;SDS011;2783;48.730;8.006;2022-09-29T11:44:04;2.17;;;1.10;;
5521;SDS011;2783;48.730;8.006;2022-09-29T11:46:37;2.20;;;1.05;;
5521;SDS011;2783;48.730;8.006;2022-09-29T11:52:12;2.00;;;1.00;;
5521;SDS011;2783;48.730;8.006;2022-09-29T11:57:18;2.15;;;1.10;;
5521;SDS011;2783;48.730;8.006;2022-09-29T12:08:29;2.70;;;1.00;;
5521;SDS011;2783;48.730;8.006;2022-09-29T12:11:10;3.10;;;1.08;;
5521;SDS011;2783;48.730;8.006;2022-09-29T12:16:11;3.13;;;1.45;;
5521;SDS011;2783;48.730;8.006;2022-09-29T12:18:44;7.50;;;1.30;;
5521;SDS011;2783;48.730;8.006;2022-09-29T12:21:14;3.03;;;1.20;;
5521;SDS011;2783;48.730;8.006;2022-09-29T12:23:46;1.85;;;1.00;;
5521;SDS011;2783;48.730;8.006;2022-09-29T12:26:17;3.47;;;1.25;;
5521;SDS011;2783;48.730;8.006;2022-09-29T12:28:57;4.28;;;1.30;;
5521;SDS011;2783;48.730;8.006;2022-09-29T12:31:40;2.38;;;1.10;;
5521;SDS011;2783;48.730;8.006;2022-09-29T12:37:12;2.33;;;1.10;;
5521;SDS011;2783;48.730;8.006;2022-09-29T12:44:56;2.83;;;1.00;;
5521;SDS011;2783;48.730;8.006;2022-09-29T12:55:22;2.40;;;1.30;;
5521;SDS011;2783;48.730;8.006;2022-09-29T12:57:55;1.20;;;0.80;;
5521;SDS011;2783;48.730;8.006;2022-09-29T13:00:24;2.22;;;1.05;;
5521;SDS011;2783;48.730;8.006;2022-09-29T13:03:15;1.85;;;0.95;;
5521;SDS011;2783;48.730;8.006;2022-09-29T13:06:23;4.68;;;2.28;;
5521;SDS011;2783;48.730;8.006;2022-09-29T13:09:17;2.75;;;1.20;;
5521;SDS011;2783;48.730;8.006;2022-09-29T13:17:19;2.05;;;1.00;;
5521;SDS011;2783;48.730;8.006;2022-09-29T13:20:22;1.17;;;0.88;;
5521;SDS011;2783;48.730;8.006;2022-09-29T13:23:08;3.15;;;0.82;;
5521;SDS011;2783;48.730;8.006;2022-09-29T13:26:04;2.97;;;1.23;;
5521;SDS011;2783;48.730;8.006;2022-09-29T13:28:56;1.50;;;1.00;;
5521;SDS011;2783;48.730;8.006;2022-09-29T13:31:29;0.98;;;0.68;;
5521;SDS011;2783;48.730;8.006;2022-09-29T13:34:01;3.58;;;1.00;;
5521;SDS011;2783;48.730;8.006;2022-09-29T13:36:29;2.47;;;1.00;;
5521;SDS011;2783;48.730;8.006;2022-09-29T13:39:18;2.03;;;0.80;;
5521;SDS011;2783;48.730;8.006;2022-09-29T13:41:46;3.47;;;1.15;;
5521;SDS011;2783;48.730;8.006;2022-09-29T13:46:40;4.50;;;0.93;;
5521;SDS011;2783;48.730;8.006;2022-09-29T13:51:41;2.67;;;0.85;;
5521;SDS011;2783;48.730;8.006;2022-09-29T14:15:25;1.42;;;0.80;;
5521;SDS011;2783;48.730;8.006;2022-09-29T14:18:00;2.13;;;1.15;;
5521;SDS011;2783;48.730;8.006;2022-09-29T14:20:30;3.25;;;0.90;;
5521;SDS011;2783;48.730;8.006;2022-09-29T14:22:58;1.73;;;0.70;;
5521;SDS011;2783;48.730;8.006;2022-09-29T14:25:29;1.42;;;0.75;;
5521;SDS011;2783;48.730;8.006;2022-09-29T14:28:15;2.92;;;1.10;;
5521;SDS011;2783;48.730;8.006;2022-09-29T14:30:54;3.50;;;1.50;;
5521;SDS011;2783;48.730;8.006;2022-09-29T14:49:52;1.40;;;0.40;;
5521;SDS011;2783;48.730;8.006;2022-09-29T14:55:29;1.05;;;0.50;;
5521;SDS011;2783;48.730;8.006;2022-09-29T14:58:31;0.85;;;0.55;;
5521;SDS011;2783;48.730;8.006;2022-09-29T15:01:31;2.50;;;0.65;;
5521;SDS011;2783;48.730;8.006;2022-09-29T15:04:08;0.80;;;0.60;;
5521;SDS011;2783;48.730;8.006;2022-09-29T15:06:44;4.25;;;1.02;;
5521;SDS011;2783;48.730;8.006;2022-09-29T15:09:15;1.83;;;0.50;;
5521;SDS011;2783;48.730;8.006;2022-09-29T15:11:43;0.52;;;0.50;;
5521;SDS011;2783;48.730;8.006;2022-09-29T15:16:53;3.92;;;0.73;;
5521;SDS011;2783;48.730;8.006;2022-09-29T15:25:24;2.67;;;0.80;;
5521;SDS011;2783;48.730;8.006;2022-09-29T15:27:56;2.60;;;1.30;;
5521;SDS011;2783;48.730;8.006;2022-09-29T15:30:24;4.20;;;1.58;;
5521;SDS011;2783;48.730;8.006;2022-09-29T15:32:51;3.70;;;1.15;;
5521;SDS011;2783;48.730;8.006;2022-09-29T15:35:22;3.40;;;2.00;;
5521;SDS011;2783;48.730;8.006;2022-09-29T15:40:15;2.80;;;1.10;;
5521;SDS011;2783;48.730;8.006;2022-09-29T15:42:43;2.13;;;1.10;;
5521;SDS011;2783;48.730;8.006;2022-09-29T15:47:46;2.85;;;1.42;;
5521;SDS011;2783;48.730;8.006;2022-09-29T15:50:21;4.03;;;1.70;;
5521;SDS011;2783;48.730;8.006;2022-09-29T15:52:49;2.65;;;1.33;;
5521;SDS011;2783;48.730;8.006;2022-09-29T15:55:16;2.10;;;1.48;;
5521;SDS011;2783;48.730;8.006;2022-09-29T15:57:44;3.80;;;1.30;;
5521;SDS011;2783;48.730;8.006;2022-09-29T16:05:37;4.45;;;1.27;;
5521;SDS011;2783;48.730;8.006;2022-09-29T16:08:06;3.42;;;1.20;;
5521;SDS011;2783;48.730;8.006;2022-09-29T16:13:19;1.38;;;1.13;;
5521;SDS011;2783;48.730;8.006;2022-09-29T16:16:06;1.43;;;1.17;;
5521;SDS011;2783;48.730;8.006;2022-09-29T16:18:41;1.38;;;0.90;;
5521;SDS011;2783;48.730;8.006;2022-09-29T16:21:14;5.75;;;1.30;;
5521;SDS011;2783;48.730;8.006;2022-09-29T16:26:18;1.52;;;0.90;;
5521;SDS011;2783;48.730;8.006;2022-09-29T16:31:37;1.50;;;0.90;;
5521;SDS011;2783;48.730;8.006;2022-09-29T16:34:17;3.78;;;1.30;;
5521;SDS011;2783;48.730;8.006;2022-09-29T16:36:48;1.63;;;0.97;;
5521;SDS011;2783;48.730;8.006;2022-09-29T16:39:20;1.60;;;0.80;;
5521;SDS011;2783;48.730;8.006;2022-09-29T16:41:52;3.88;;;0.95;;
5521;SDS011;2783;48.730;8.006;2022-09-29T16:49:34;2.28;;;0.77;;
5521;SDS011;2783;48.730;8.006;2022-09-29T16:52:02;4.95;;;2.05;;
5521;SDS011;2783;48.730;8.006;2022-09-29T16:54:43;3.92;;;1.63;;
5521;SDS011;2783;48.730;8.006;2022-09-29T16:57:29;2.20;;;1.17;;
5521;SDS011;2783;48.730;8.006;2022-09-29T16:59:56;3.47;;;1.33;;
5521;SDS011;2783;48.730;8.006;2022-09-29T17:02:23;1.50;;;1.15;;
5521;SDS011;2783;48.730;8.006;2022-09-29T17:04:50;6.03;;;1.75;;
5521;SDS011;2783;48.730;8.006;2022-09-29T17:07:17;8.43;;;1.60;;
5521;SDS011;2783;48.730;8.006;2022-09-29T17:09:54;7.32;;;1.73;;
5521;SDS011;2783;48.730;8.006;2022-09-29T17:12:22;5.57;;;1.48;;
5521;SDS011;2783;48.730;8.006;2022-09-29T17:14:48;3.20;;;1.05;;
5521;SDS011;2783;48.730;8.006;2022-09-29T17:17:15;3.65;;;1.13;;
5521;SDS011;2783;48.730;8.006;2022-09-29T17:19:42;4.45;;;1.55;;
5521;SDS011;2783;48.730;8.006;2022-09-29T17:22:16;4.75;;;1.65;;
5521;SDS011;2783;48.730;8.006;2022-09-29T17:24:48;3.28;;;1.20;;
5521;SDS011;2783;48.730;8.006;2022-09-29T17:27:13;7.93;;;1.20;;
5521;SDS011;2783;48.730;8.006;2022-09-29T17:29:57;1.65;;;1.02;;
5521;SDS011;2783;48.730;8.006;2022-09-29T17:32:22;2.53;;;1.60;;
5521;SDS011;2783;48.730;8.006;2022-09-29T17:34:48;1.80;;;1.10;;
5521;SDS011;2783;48.730;8.006;2022-09-29T17:37:13;2.78;;;1.27;;
5521;SDS011;2783;48.730;8.006;2022-09-29T17:39:42;2.13;;;1.05;;
5521;SDS011;2783;48.730;8.006;2022-09-29T17:42:07;1.67;;;1.08;;
5521;SDS011;2783;48.730;8.006;2022-09-29T17:44:33;2.20;;;1.40;;
5521;SDS011;2783;48.730;8.006;2022-09-29T17:46:58;2.72;;;1.30;;
5521;SDS011;2783;48.730;8.006;2022-09-29T17:49:24;1.30;;;0.93;;
5521;SDS011;2783;48.730;8.006;2022-09-29T17:51:49;5.07;;;1.30;;
5521;SDS011;2783;48.730;8.006;2022-09-29T17:54:16;2.50;;;1.20;;
5521;SDS011;2783;48.730;8.006;2022-09-29T17:56:42;2.55;;;1.65;;
5521;SDS011;2783;48.730;8.006;2022-09-29T17:59:08;4.88;;;1.35;;
5521;SDS011;2783;48.730;8.006;2022-09-29T18:01:34;3.13;;;1.60;;
5521;SDS011;2783;48.730;8.006;2022-09-29T18:04:01;4.18;;;1.55;;
5521;SDS011;2783;48.730;8.006;2022-09-29T18:06:27;4.40;;;1.80;;
5521;SDS011;2783;48.730;8.006;2022-09-29T18:08:54;3.55;;;2.15;;
5521;SDS011;2783;48.730;8.006;2022-09-29T18:11:22;2.45;;;1.58;;
5521;SDS011;2783;48.730;8.006;2022-09-29T18:13:48;7.88;;;2.47;;
5521;SDS011;2783;48.730;8.006;2022-09-29T18:16:18;3.15;;;1.98;;
5521;SDS011;2783;48.730;8.006;2022-09-29T18:18:46;4.38;;;1.90;;
5521;SDS011;2783;48.730;8.006;2022-09-29T18:21:12;3.47;;;2.03;;
5521;SDS011;2783;48.730;8.006;2022-09-29T18:23:42;4.00;;;1.80;;
5521;SDS011;2783;48.730;8.006;2022-09-29T18:26:09;3.47;;;1.60;;
5521;SDS011;2783;48.730;8.006;2022-09-29T18:28:35;2.88;;;1.70;;
5521;SDS011;2783;48.730;8.006;2022-09-29T18:33:31;2.97;;;1.40;;
5521;SDS011;2783;48.730;8.006;2022-09-29T18:35:58;3.28;;;1.55;;
5521;SDS011;2783;48.730;8.006;2022-09-29T18:38:24;4.93;;;1.73;;
5521;SDS011;2783;48.730;8.006;2022-09-29T18:40:50;2.72;;;1.63;;
5521;SDS011;2783;48.730;8.006;2022-09-29T18:43:18;3.00;;;1.73;;
5521;SDS011;2783;48.730;8.006;2022-09-29T18:45:45;4.30;;;2.10;;
5521;SDS011;2783;48.730;8.006;2022-09-29T18:48:13;4.57;;;2.53;;
5521;SDS011;2783;48.730;8.006;2022-09-29T18:50:40;5.35;;;2.10;;
5521;SDS011;2783;48.730;8.006;2022-09-29T18:53:10;4.72;;;2.30;;
5521;SDS011;2783;48.730;8.006;2022-09-29T18:55:37;5.50;;;2.08;;
5521;SDS011;2783;48.730;8.006;2022-09-29T18:58:05;3.40;;;1.77;;
5521;SDS011;2783;48.730;8.006;2022-09-29T19:00:37;3.78;;;2.15;;
5521;SDS011;2783;48.730;8.006;2022-09-29T19:03:05;4.57;;;2.25;;
5521;SDS011;2783;48.730;8.006;2022-09-29T19:05:31;4.82;;;2.22;;